sensor_id;sensor_type;location;lat;lon;timestamp;P1;durP1;ratioP1;P2;durP2;ratioP2
65552;SDS011;52465;51.560;14.368;2023-02-24T00:01:58;14.90;;;11.35;;
65552;SDS011;52465;51.560;14.368;2023-02-24T00:04:29;15.32;;;11.68;;
65552;SDS011;52465;51.560;14.368;2023-02-24T00:07:00;14.95;;;11.60;;
65552;SDS011;52465;51.560;14.368;2023-02-24T00:09:27;13.73;;;11.00;;
65552;SDS011;52465;51.560;14.368;2023-02-24T00:11:55;16.05;;;12.15;;
65552;SDS011;52465;51.560;14.368;2023-02-24T00:14:24;15.38;;;11.50;;
65552;SDS011;52465;51.560;14.368;2023-02-24T00:16:51;15.25;;;11.60;;
65552;SDS011;52465;51.560;14.368;2023-02-24T00:19:19;14.40;;;11.48;;
65552;SDS011;52465;51.560;14.368;2023-02-24T00:21:47;14.90;;;11.82;;
65552;SDS011;52465;51.560;14.368;2023-02-24T00:24:13;14.75;;;11.45;;
65552;SDS011;52465;51.560;14.368;2023-02-24T00:26:38;16.90;;;11.57;;
65552;SDS011;52465;51.560;14.368;2023-02-24T00:29:05;17.13;;;11.65;;
65552;SDS011;52465;51.560;14.368;2023-02-24T00:31:33;15.25;;;11.60;;
65552;SDS011;52465;51.560;14.368;2023-02-24T00:34:02;14.85;;;11.00;;
65552;SDS011;52465;51.560;14.368;2023-02-24T00:36:28;14.63;;;11.65;;
65552;SDS011;52465;51.560;14.368;2023-02-24T00:38:55;16.63;;;11.75;;
65552;SDS011;52465;51.560;14.368;2023-02-24T00:41:29;15.40;;;11.30;;
65552;SDS011;52465;51.560;14.368;2023-02-24T00:43:56;14.60;;;11.25;;
65552;SDS011;52465;51.560;14.368;2023-02-24T00:46:37;16.42;;;11.57;;
65552;SDS011;52465;51.560;14.368;2023-02-24T00:49:04;17.38;;;10.95;;
65552;SDS011;52465;51.560;14.368;2023-02-24T00:51:39;14.73;;;11.55;;
65552;SDS011;52465;51.560;14.368;2023-02-24T00:54:05;16.17;;;11.82;;
65552;SDS011;52465;51.560;14.368;2023-02-24T00:56:32;17.05;;;11.30;;
65552;SDS011;52465;51.560;14.368;2023-02-24T00:58:59;16.23;;;11.30;;
65552;SDS011;52465;51.560;14.368;2023-02-24T01:01:26;14.98;;;11.65;;
65552;SDS011;52465;51.560;14.368;2023-02-24T01:03:57;14.38;;;10.90;;
65552;SDS011;52465;51.560;14.368;2023-02-24T01:06:25;15.80;;;11.50;;
65552;SDS011;52465;51.560;14.368;2023-02-24T01:08:54;16.70;;;11.95;;
65552;SDS011;52465;51.560;14.368;2023-02-24T01:11:22;14.07;;;11.10;;
65552;SDS011;52465;51.560;14.368;2023-02-24T01:14:12;16.70;;;11.90;;
65552;SDS011;52465;51.560;14.368;2023-02-24T01:16:40;16.60;;;12.15;;
65552;SDS011;52465;51.560;14.368;2023-02-24T01:19:08;15.82;;;11.48;;
65552;SDS011;52465;51.560;14.368;2023-02-24T01:21:35;16.60;;;11.82;;
65552;SDS011;52465;51.560;14.368;2023-02-24T01:24:01;14.57;;;11.93;;
65552;SDS011;52465;51.560;14.368;2023-02-24T01:26:27;16.90;;;12.25;;
65552;SDS011;52465;51.560;14.368;2023-02-24T01:28:53;17.17;;;11.48;;
65552;SDS011;52465;51.560;14.368;2023-02-24T01:31:19;16.35;;;11.93;;
65552;SDS011;52465;51.560;14.368;2023-02-24T01:33:46;16.45;;;11.15;;
65552;SDS011;52465;51.560;14.368;2023-02-24T01:36:13;13.88;;;10.80;;
65552;SDS011;52465;51.560;14.368;2023-02-24T01:38:41;14.50;;;11.75;;
65552;SDS011;52465;51.560;14.368;2023-02-24T01:41:08;13.68;;;10.98;;
65552;SDS011;52465;51.560;14.368;2023-02-24T01:46:24;16.55;;;12.00;;
65552;SDS011;52465;51.560;14.368;2023-02-24T01:48:51;16.02;;;11.20;;
65552;SDS011;52465;51.560;14.368;2023-02-24T01:51:19;14.88;;;11.25;;
65552;SDS011;52465;51.560;14.368;2023-02-24T01:53:45;16.15;;;11.77;;
65552;SDS011;52465;51.560;14.368;2023-02-24T01:56:11;15.93;;;11.10;;
65552;SDS011;52465;51.560;14.368;2023-02-24T01:58:38;16.55;;;11.73;;
65552;SDS011;52465;51.560;14.368;2023-02-24T02:01:05;14.77;;;10.70;;
65552;SDS011;52465;51.560;14.368;2023-02-24T02:03:34;13.43;;;10.90;;
65552;SDS011;52465;51.560;14.368;2023-02-24T02:06:03;14.82;;;11.02;;
65552;SDS011;52465;51.560;14.368;2023-02-24T02:08:33;14.88;;;11.20;;
65552;SDS011;52465;51.560;14.368;2023-02-24T02:11:02;13.63;;;10.90;;
65552;SDS011;52465;51.560;14.368;2023-02-24T02:13:30;13.38;;;10.35;;
65552;SDS011;52465;51.560;14.368;2023-02-24T02:16:06;16.40;;;11.85;;
65552;SDS011;52465;51.560;14.368;2023-02-24T02:24:28;14.68;;;10.95;;
65552;SDS011;52465;51.560;14.368;2023-02-24T02:35:46;14.35;;;10.75;;
65552;SDS011;52465;51.560;14.368;2023-02-24T02:38:40;13.88;;;10.15;;
65552;SDS011;52465;51.560;14.368;2023-02-24T02:46:37;16.48;;;11.15;;
65552;SDS011;52465;51.560;14.368;2023-02-24T02:49:12;13.35;;;10.65;;
65552;SDS011;52465;51.560;14.368;2023-02-24T02:51:47;13.68;;;10.93;;
65552;SDS011;52465;51.560;14.368;2023-02-24T02:56:55;16.40;;;11.45;;
65552;SDS011;52465;51.560;14.368;2023-02-24T02:59:29;14.40;;;10.82;;
65552;SDS011;52465;51.560;14.368;2023-02-24T03:01:59;11.97;;;10.13;;
65552;SDS011;52465;51.560;14.368;2023-02-24T03:04:36;13.30;;;10.60;;
65552;SDS011;52465;51.560;14.368;2023-02-24T03:09:33;15.13;;;10.82;;
65552;SDS011;52465;51.560;14.368;2023-02-24T03:12:08;15.20;;;10.90;;
65552;SDS011;52465;51.560;14.368;2023-02-24T03:14:43;13.30;;;10.82;;
65552;SDS011;52465;51.560;14.368;2023-02-24T03:17:18;13.15;;;10.40;;
65552;SDS011;52465;51.560;14.368;2023-02-24T03:19:49;12.35;;;10.63;;
65552;SDS011;52465;51.560;14.368;2023-02-24T03:22:20;14.85;;;10.75;;
65552;SDS011;52465;51.560;14.368;2023-02-24T03:24:58;12.00;;;10.25;;
65552;SDS011;52465;51.560;14.368;2023-02-24T03:27:26;14.98;;;11.23;;
65552;SDS011;52465;51.560;14.368;2023-02-24T03:29:57;14.15;;;10.48;;
65552;SDS011;52465;51.560;14.368;2023-02-24T03:32:37;15.02;;;10.43;;
65552;SDS011;52465;51.560;14.368;2023-02-24T03:35:18;15.82;;;10.70;;
65552;SDS011;52465;51.560;14.368;2023-02-24T03:37:56;13.45;;;10.85;;
65552;SDS011;52465;51.560;14.368;2023-02-24T03:40:23;13.18;;;10.63;;
65552;SDS011;52465;51.560;14.368;2023-02-24T03:43:02;12.00;;;10.23;;
65552;SDS011;52465;51.560;14.368;2023-02-24T03:45:36;12.52;;;10.50;;
65552;SDS011;52465;51.560;14.368;2023-02-24T03:48:04;13.68;;;10.05;;
65552;SDS011;52465;51.560;14.368;2023-02-24T03:50:32;13.48;;;10.80;;
65552;SDS011;52465;51.560;14.368;2023-02-24T03:53:03;14.95;;;10.50;;
65552;SDS011;52465;51.560;14.368;2023-02-24T03:55:50;13.02;;;10.50;;
65552;SDS011;52465;51.560;14.368;2023-02-24T03:58:54;12.85;;;10.52;;
65552;SDS011;52465;51.560;14.368;2023-02-24T04:04:27;13.27;;;11.05;;
65552;SDS011;52465;51.560;14.368;2023-02-24T04:07:07;14.70;;;10.48;;
65552;SDS011;52465;51.560;14.368;2023-02-24T04:09:40;13.95;;;10.48;;
65552;SDS011;52465;51.560;14.368;2023-02-24T04:15:20;13.48;;;10.30;;
65552;SDS011;52465;51.560;14.368;2023-02-24T04:17:51;13.25;;;10.95;;
65552;SDS011;52465;51.560;14.368;2023-02-24T04:20:21;12.35;;;10.25;;
65552;SDS011;52465;51.560;14.368;2023-02-24T04:22:55;14.30;;;10.05;;
65552;SDS011;52465;51.560;14.368;2023-02-24T04:25:25;11.77;;;10.27;;
65552;SDS011;52465;51.560;14.368;2023-02-24T04:27:52;14.00;;;10.32;;
65552;SDS011;52465;51.560;14.368;2023-02-24T04:30:19;14.40;;;10.57;;
65552;SDS011;52465;51.560;14.368;2023-02-24T04:32:49;12.70;;;10.02;;
65552;SDS011;52465;51.560;14.368;2023-02-24T04:35:15;11.02;;;9.68;;
65552;SDS011;52465;51.560;14.368;2023-02-24T04:37:44;11.93;;;9.63;;
65552;SDS011;52465;51.560;14.368;2023-02-24T04:40:11;15.30;;;9.82;;
65552;SDS011;52465;51.560;14.368;2023-02-24T04:45:26;14.43;;;10.07;;
65552;SDS011;52465;51.560;14.368;2023-02-24T04:47:53;13.45;;;9.85;;
65552;SDS011;52465;51.560;14.368;2023-02-24T04:50:22;12.55;;;9.88;;
65552;SDS011;52465;51.560;14.368;2023-02-24T04:52:52;12.43;;;9.95;;
65552;SDS011;52465;51.560;14.368;2023-02-24T04:55:21;16.05;;;10.98;;
65552;SDS011;52465;51.560;14.368;2023-02-24T04:57:48;11.45;;;9.60;;
65552;SDS011;52465;51.560;14.368;2023-02-24T05:00:17;12.88;;;9.80;;
65552;SDS011;52465;51.560;14.368;2023-02-24T05:02:52;15.02;;;10.70;;
65552;SDS011;52465;51.560;14.368;2023-02-24T05:05:20;13.80;;;10.07;;
65552;SDS011;52465;51.560;14.368;2023-02-24T05:07:51;12.38;;;9.57;;
65552;SDS011;52465;51.560;14.368;2023-02-24T05:10:22;12.65;;;9.93;;
65552;SDS011;52465;51.560;14.368;2023-02-24T05:12:53;13.15;;;9.93;;
65552;SDS011;52465;51.560;14.368;2023-02-24T05:15:22;11.40;;;10.07;;
65552;SDS011;52465;51.560;14.368;2023-02-24T05:17:54;11.68;;;9.77;;
65552;SDS011;52465;51.560;14.368;2023-02-24T05:20:21;12.00;;;9.50;;
65552;SDS011;52465;51.560;14.368;2023-02-24T05:23:04;12.15;;;9.90;;
65552;SDS011;52465;51.560;14.368;2023-02-24T05:25:30;13.13;;;9.45;;
65552;SDS011;52465;51.560;14.368;2023-02-24T05:28:01;12.00;;;9.65;;
65552;SDS011;52465;51.560;14.368;2023-02-24T05:30:45;13.27;;;9.50;;
65552;SDS011;52465;51.560;14.368;2023-02-24T05:33:11;11.07;;;9.32;;
65552;SDS011;52465;51.560;14.368;2023-02-24T05:35:37;14.40;;;9.98;;
65552;SDS011;52465;51.560;14.368;2023-02-24T05:38:03;11.93;;;9.45;;
65552;SDS011;52465;51.560;14.368;2023-02-24T05:40:32;13.45;;;9.07;;
65552;SDS011;52465;51.560;14.368;2023-02-24T05:42:58;12.45;;;9.80;;
65552;SDS011;52465;51.560;14.368;2023-02-24T05:45:28;11.45;;;9.43;;
65552;SDS011;52465;51.560;14.368;2023-02-24T05:47:54;13.35;;;9.32;;
65552;SDS011;52465;51.560;14.368;2023-02-24T05:50:20;12.02;;;9.50;;
65552;SDS011;52465;51.560;14.368;2023-02-24T05:52:50;11.32;;;8.95;;
65552;SDS011;52465;51.560;14.368;2023-02-24T05:55:16;13.10;;;9.40;;
65552;SDS011;52465;51.560;14.368;2023-02-24T05:57:42;11.98;;;9.55;;
65552;SDS011;52465;51.560;14.368;2023-02-24T06:00:07;10.50;;;9.30;;
65552;SDS011;52465;51.560;14.368;2023-02-24T06:02:40;11.50;;;9.55;;
65552;SDS011;52465;51.560;14.368;2023-02-24T06:05:13;12.82;;;9.13;;
65552;SDS011;52465;51.560;14.368;2023-02-24T06:07:55;10.50;;;8.70;;
65552;SDS011;52465;51.560;14.368;2023-02-24T06:10:30;14.40;;;9.13;;
65552;SDS011;52465;51.560;14.368;2023-02-24T06:12:58;10.27;;;8.82;;
65552;SDS011;52465;51.560;14.368;2023-02-24T06:15:25;12.88;;;9.60;;
65552;SDS011;52465;51.560;14.368;2023-02-24T06:17:51;13.10;;;9.35;;
65552;SDS011;52465;51.560;14.368;2023-02-24T06:20:17;11.50;;;9.35;;
65552;SDS011;52465;51.560;14.368;2023-02-24T06:22:42;11.18;;;9.73;;
65552;SDS011;52465;51.560;14.368;2023-02-24T06:25:26;12.23;;;8.93;;
65552;SDS011;52465;51.560;14.368;2023-02-24T06:27:54;10.63;;;8.88;;
65552;SDS011;52465;51.560;14.368;2023-02-24T06:30:23;12.65;;;8.75;;
65552;SDS011;52465;51.560;14.368;2023-02-24T06:32:49;10.35;;;9.20;;
65552;SDS011;52465;51.560;14.368;2023-02-24T06:35:15;10.43;;;8.77;;
65552;SDS011;52465;51.560;14.368;2023-02-24T06:37:41;12.10;;;9.02;;
65552;SDS011;52465;51.560;14.368;2023-02-24T06:40:07;10.60;;;8.48;;
65552;SDS011;52465;51.560;14.368;2023-02-24T06:42:42;9.23;;;8.15;;
65552;SDS011;52465;51.560;14.368;2023-02-24T06:45:10;9.48;;;8.35;;
65552;SDS011;52465;51.560;14.368;2023-02-24T06:47:36;13.05;;;9.10;;
65552;SDS011;52465;51.560;14.368;2023-02-24T06:50:01;12.30;;;8.95;;
65552;SDS011;52465;51.560;14.368;2023-02-24T06:52:30;11.43;;;8.65;;
65552;SDS011;52465;51.560;14.368;2023-02-24T06:54:55;14.20;;;9.05;;
65552;SDS011;52465;51.560;14.368;2023-02-24T06:57:21;12.50;;;8.48;;
65552;SDS011;52465;51.560;14.368;2023-02-24T06:59:47;12.80;;;9.32;;
65552;SDS011;52465;51.560;14.368;2023-02-24T07:02:13;11.63;;;9.05;;
65552;SDS011;52465;51.560;14.368;2023-02-24T07:04:38;9.57;;;8.27;;
65552;SDS011;52465;51.560;14.368;2023-02-24T07:07:10;10.13;;;8.65;;
65552;SDS011;52465;51.560;14.368;2023-02-24T07:09:38;13.63;;;9.63;;
65552;SDS011;52465;51.560;14.368;2023-02-24T07:12:05;10.95;;;9.05;;
65552;SDS011;52465;51.560;14.368;2023-02-24T07:14:32;12.25;;;8.20;;
65552;SDS011;52465;51.560;14.368;2023-02-24T07:16:57;11.45;;;8.80;;
65552;SDS011;52465;51.560;14.368;2023-02-24T07:19:27;12.23;;;8.48;;
65552;SDS011;52465;51.560;14.368;2023-02-24T07:21:56;10.25;;;8.27;;
65552;SDS011;52465;51.560;14.368;2023-02-24T07:24:24;9.13;;;7.80;;
65552;SDS011;52465;51.560;14.368;2023-02-24T07:26:57;9.00;;;7.93;;
65552;SDS011;52465;51.560;14.368;2023-02-24T07:29:37;9.15;;;7.18;;
65552;SDS011;52465;51.560;14.368;2023-02-24T07:32:06;11.63;;;8.15;;
65552;SDS011;52465;51.560;14.368;2023-02-24T07:34:33;15.48;;;8.60;;
65552;SDS011;52465;51.560;14.368;2023-02-24T07:36:59;9.68;;;8.00;;
65552;SDS011;52465;51.560;14.368;2023-02-24T07:39:31;9.07;;;8.10;;
65552;SDS011;52465;51.560;14.368;2023-02-24T07:41:57;9.02;;;8.18;;
65552;SDS011;52465;51.560;14.368;2023-02-24T07:44:23;11.07;;;7.85;;
65552;SDS011;52465;51.560;14.368;2023-02-24T07:46:49;10.30;;;7.82;;
65552;SDS011;52465;51.560;14.368;2023-02-24T07:49:17;8.60;;;7.75;;
65552;SDS011;52465;51.560;14.368;2023-02-24T07:51:47;8.65;;;7.85;;
65552;SDS011;52465;51.560;14.368;2023-02-24T07:54:17;10.77;;;8.00;;
65552;SDS011;52465;51.560;14.368;2023-02-24T07:56:45;12.93;;;8.50;;
65552;SDS011;52465;51.560;14.368;2023-02-24T07:59:26;11.57;;;7.80;;
65552;SDS011;52465;51.560;14.368;2023-02-24T08:01:53;8.43;;;7.37;;
65552;SDS011;52465;51.560;14.368;2023-02-24T08:04:20;8.85;;;7.95;;
65552;SDS011;52465;51.560;14.368;2023-02-24T08:06:48;8.57;;;7.47;;
65552;SDS011;52465;51.560;14.368;2023-02-24T08:09:22;10.82;;;7.95;;
65552;SDS011;52465;51.560;14.368;2023-02-24T08:12:15;9.57;;;7.82;;
65552;SDS011;52465;51.560;14.368;2023-02-24T08:14:46;9.07;;;8.18;;
65552;SDS011;52465;51.560;14.368;2023-02-24T08:17:15;9.13;;;7.68;;
65552;SDS011;52465;51.560;14.368;2023-02-24T08:19:44;8.98;;;8.13;;
65552;SDS011;52465;51.560;14.368;2023-02-24T08:22:11;9.93;;;8.05;;
65552;SDS011;52465;51.560;14.368;2023-02-24T08:24:50;8.30;;;7.50;;
65552;SDS011;52465;51.560;14.368;2023-02-24T08:27:42;9.38;;;7.70;;
65552;SDS011;52465;51.560;14.368;2023-02-24T08:30:09;8.27;;;7.47;;
65552;SDS011;52465;51.560;14.368;2023-02-24T08:32:47;7.68;;;6.97;;
65552;SDS011;52465;51.560;14.368;2023-02-24T08:35:23;8.23;;;7.40;;
65552;SDS011;52465;51.560;14.368;2023-02-24T08:38:00;8.20;;;7.40;;
65552;SDS011;52465;51.560;14.368;2023-02-24T08:40:30;9.60;;;7.20;;
65552;SDS011;52465;51.560;14.368;2023-02-24T08:42:59;7.93;;;7.20;;
65552;SDS011;52465;51.560;14.368;2023-02-24T08:45:48;8.00;;;7.30;;
65552;SDS011;52465;51.560;14.368;2023-02-24T08:48:22;11.18;;;7.18;;
65552;SDS011;52465;51.560;14.368;2023-02-24T08:51:03;8.55;;;7.13;;
65552;SDS011;52465;51.560;14.368;2023-02-24T08:53:31;9.20;;;7.20;;
65552;SDS011;52465;51.560;14.368;2023-02-24T08:55:58;11.65;;;7.53;;
65552;SDS011;52465;51.560;14.368;2023-02-24T08:58:43;7.97;;;7.22;;
65552;SDS011;52465;51.560;14.368;2023-02-24T09:01:20;8.50;;;6.88;;
65552;SDS011;52465;51.560;14.368;2023-02-24T09:03:51;8.95;;;7.00;;
65552;SDS011;52465;51.560;14.368;2023-02-24T09:06:19;8.32;;;7.20;;
65552;SDS011;52465;51.560;14.368;2023-02-24T09:08:53;10.05;;;7.43;;
65552;SDS011;52465;51.560;14.368;2023-02-24T09:11:39;8.07;;;7.07;;
65552;SDS011;52465;51.560;14.368;2023-02-24T09:14:13;7.70;;;6.90;;
65552;SDS011;52465;51.560;14.368;2023-02-24T09:16:46;8.80;;;7.85;;
65552;SDS011;52465;51.560;14.368;2023-02-24T09:22:11;8.43;;;7.63;;
65552;SDS011;52465;51.560;14.368;2023-02-24T09:27:34;7.63;;;6.85;;
65552;SDS011;52465;51.560;14.368;2023-02-24T09:30:06;8.23;;;7.40;;
65552;SDS011;52465;51.560;14.368;2023-02-24T09:32:42;7.85;;;7.18;;
65552;SDS011;52465;51.560;14.368;2023-02-24T09:35:12;9.02;;;6.97;;
65552;SDS011;52465;51.560;14.368;2023-02-24T09:37:48;7.60;;;6.80;;
65552;SDS011;52465;51.560;14.368;2023-02-24T09:40:14;7.10;;;6.57;;
65552;SDS011;52465;51.560;14.368;2023-02-24T09:42:39;7.97;;;7.25;;
65552;SDS011;52465;51.560;14.368;2023-02-24T09:45:15;7.43;;;6.75;;
65552;SDS011;52465;51.560;14.368;2023-02-24T09:47:57;7.97;;;7.13;;
65552;SDS011;52465;51.560;14.368;2023-02-24T09:50:32;7.80;;;7.05;;
65552;SDS011;52465;51.560;14.368;2023-02-24T09:53:14;10.70;;;7.00;;
65552;SDS011;52465;51.560;14.368;2023-02-24T10:01:28;10.88;;;7.15;;
65552;SDS011;52465;51.560;14.368;2023-02-24T10:06:36;7.32;;;6.72;;
65552;SDS011;52465;51.560;14.368;2023-02-24T10:09:17;8.63;;;6.90;;
65552;SDS011;52465;51.560;14.368;2023-02-24T10:11:50;7.25;;;6.60;;
65552;SDS011;52465;51.560;14.368;2023-02-24T10:14:21;5.70;;;5.40;;
65552;SDS011;52465;51.560;14.368;2023-02-24T10:17:06;6.45;;;5.90;;
65552;SDS011;52465;51.560;14.368;2023-02-24T10:20:14;9.88;;;6.15;;
65552;SDS011;52465;51.560;14.368;2023-02-24T10:22:55;6.88;;;6.03;;
65552;SDS011;52465;51.560;14.368;2023-02-24T10:25:52;7.75;;;6.13;;
65552;SDS011;52465;51.560;14.368;2023-02-24T10:28:25;8.43;;;6.53;;
65552;SDS011;52465;51.560;14.368;2023-02-24T10:31:29;11.73;;;6.38;;
65552;SDS011;52465;51.560;14.368;2023-02-24T10:34:09;7.50;;;6.65;;
65552;SDS011;52465;51.560;14.368;2023-02-24T10:36:37;8.93;;;6.20;;
65552;SDS011;52465;51.560;14.368;2023-02-24T10:39:19;6.80;;;6.18;;
65552;SDS011;52465;51.560;14.368;2023-02-24T10:41:58;9.38;;;5.93;;
65552;SDS011;52465;51.560;14.368;2023-02-24T10:44:44;6.60;;;6.00;;
65552;SDS011;52465;51.560;14.368;2023-02-24T10:47:19;7.32;;;5.97;;
65552;SDS011;52465;51.560;14.368;2023-02-24T10:49:56;6.15;;;5.75;;
65552;SDS011;52465;51.560;14.368;2023-02-24T10:52:33;6.72;;;6.03;;
65552;SDS011;52465;51.560;14.368;2023-02-24T10:58:19;6.72;;;5.70;;
65552;SDS011;52465;51.560;14.368;2023-02-24T11:01:13;6.15;;;5.65;;
65552;SDS011;52465;51.560;14.368;2023-02-24T11:03:47;7.00;;;5.63;;
65552;SDS011;52465;51.560;14.368;2023-02-24T11:06:30;6.38;;;5.25;;
65552;SDS011;52465;51.560;14.368;2023-02-24T11:11:57;5.63;;;5.20;;
65552;SDS011;52465;51.560;14.368;2023-02-24T11:14:53;8.93;;;5.35;;
65552;SDS011;52465;51.560;14.368;2023-02-24T11:17:49;5.78;;;5.38;;
65552;SDS011;52465;51.560;14.368;2023-02-24T11:23:00;6.20;;;5.60;;
65552;SDS011;52465;51.560;14.368;2023-02-24T11:25:34;6.93;;;5.60;;
65552;SDS011;52465;51.560;14.368;2023-02-24T11:28:15;6.00;;;5.40;;
65552;SDS011;52465;51.560;14.368;2023-02-24T11:31:11;5.72;;;5.18;;
65552;SDS011;52465;51.560;14.368;2023-02-24T11:37:00;6.18;;;5.60;;
65552;SDS011;52465;51.560;14.368;2023-02-24T11:42:26;6.25;;;5.65;;
65552;SDS011;52465;51.560;14.368;2023-02-24T11:45:03;5.40;;;5.10;;
65552;SDS011;52465;51.560;14.368;2023-02-24T11:50:54;5.80;;;5.40;;
65552;SDS011;52465;51.560;14.368;2023-02-24T11:56:32;6.28;;;5.38;;
65552;SDS011;52465;51.560;14.368;2023-02-24T12:07:24;5.60;;;5.20;;
65552;SDS011;52465;51.560;14.368;2023-02-24T12:12:26;6.13;;;5.43;;
65552;SDS011;52465;51.560;14.368;2023-02-24T12:15:09;6.00;;;5.50;;
65552;SDS011;52465;51.560;14.368;2023-02-24T12:20:37;6.10;;;5.70;;
65552;SDS011;52465;51.560;14.368;2023-02-24T12:23:17;6.28;;;5.68;;
65552;SDS011;52465;51.560;14.368;2023-02-24T12:25:50;5.90;;;5.30;;
65552;SDS011;52465;51.560;14.368;2023-02-24T12:34:13;6.63;;;5.45;;
65552;SDS011;52465;51.560;14.368;2023-02-24T12:36:54;5.95;;;5.40;;
65552;SDS011;52465;51.560;14.368;2023-02-24T12:42:04;6.28;;;5.78;;
65552;SDS011;52465;51.560;14.368;2023-02-24T12:44:40;8.05;;;6.13;;
65552;SDS011;52465;51.560;14.368;2023-02-24T12:47:24;8.20;;;5.88;;
65552;SDS011;52465;51.560;14.368;2023-02-24T12:58:24;6.43;;;5.93;;
65552;SDS011;52465;51.560;14.368;2023-02-24T13:00:59;6.43;;;5.93;;
65552;SDS011;52465;51.560;14.368;2023-02-24T13:14:20;6.45;;;5.80;;
65552;SDS011;52465;51.560;14.368;2023-02-24T13:17:01;6.18;;;5.63;;
65552;SDS011;52465;51.560;14.368;2023-02-24T13:19:29;6.13;;;5.68;;
65552;SDS011;52465;51.560;14.368;2023-02-24T13:24:33;6.38;;;5.80;;
65552;SDS011;52465;51.560;14.368;2023-02-24T13:27:04;6.13;;;5.63;;
65552;SDS011;52465;51.560;14.368;2023-02-24T13:29:49;5.97;;;5.47;;
65552;SDS011;52465;51.560;14.368;2023-02-24T13:35:27;6.13;;;5.72;;
65552;SDS011;52465;51.560;14.368;2023-02-24T13:37:50;6.57;;;5.95;;
65552;SDS011;52465;51.560;14.368;2023-02-24T13:42:43;5.65;;;5.35;;
65552;SDS011;52465;51.560;14.368;2023-02-24T13:45:20;6.00;;;5.60;;
65552;SDS011;52465;51.560;14.368;2023-02-24T13:52:59;6.53;;;5.93;;
65552;SDS011;52465;51.560;14.368;2023-02-24T13:56:05;6.30;;;5.78;;
65552;SDS011;52465;51.560;14.368;2023-02-24T13:58:55;6.25;;;5.88;;
65552;SDS011;52465;51.560;14.368;2023-02-24T14:01:59;6.47;;;5.90;;
65552;SDS011;52465;51.560;14.368;2023-02-24T14:04:30;6.57;;;6.00;;
65552;SDS011;52465;51.560;14.368;2023-02-24T14:07:02;5.95;;;5.45;;
65552;SDS011;52465;51.560;14.368;2023-02-24T14:09:59;6.20;;;5.70;;
65552;SDS011;52465;51.560;14.368;2023-02-24T14:12:30;7.00;;;6.20;;
65552;SDS011;52465;51.560;14.368;2023-02-24T14:14:58;6.80;;;6.22;;
65552;SDS011;52465;51.560;14.368;2023-02-24T14:20:16;6.70;;;6.10;;
65552;SDS011;52465;51.560;14.368;2023-02-24T14:22:44;6.38;;;5.95;;
65552;SDS011;52465;51.560;14.368;2023-02-24T14:25:14;6.22;;;5.75;;
65552;SDS011;52465;51.560;14.368;2023-02-24T14:27:44;6.45;;;5.85;;
65552;SDS011;52465;51.560;14.368;2023-02-24T14:32:49;6.40;;;6.00;;
65552;SDS011;52465;51.560;14.368;2023-02-24T14:35:32;6.53;;;5.95;;
65552;SDS011;52465;51.560;14.368;2023-02-24T14:38:00;6.70;;;6.30;;
65552;SDS011;52465;51.560;14.368;2023-02-24T14:40:26;6.30;;;5.93;;
65552;SDS011;52465;51.560;14.368;2023-02-24T14:42:52;6.38;;;5.95;;
65552;SDS011;52465;51.560;14.368;2023-02-24T14:45:20;6.35;;;5.78;;
65552;SDS011;52465;51.560;14.368;2023-02-24T14:47:49;6.70;;;6.20;;
65552;SDS011;52465;51.560;14.368;2023-02-24T14:50:16;6.57;;;6.13;;
65552;SDS011;52465;51.560;14.368;2023-02-24T14:52:50;6.50;;;6.10;;
65552;SDS011;52465;51.560;14.368;2023-02-24T14:55:20;6.35;;;5.95;;
65552;SDS011;52465;51.560;14.368;2023-02-24T14:57:57;7.68;;;6.00;;
65552;SDS011;52465;51.560;14.368;2023-02-24T15:03:16;6.35;;;5.88;;
65552;SDS011;52465;51.560;14.368;2023-02-24T15:05:54;6.15;;;5.75;;
65552;SDS011;52465;51.560;14.368;2023-02-24T15:13:42;7.35;;;6.13;;
65552;SDS011;52465;51.560;14.368;2023-02-24T15:19:20;6.43;;;5.85;;
65552;SDS011;52465;51.560;14.368;2023-02-24T15:21:55;6.20;;;5.80;;
65552;SDS011;52465;51.560;14.368;2023-02-24T15:24:28;6.38;;;5.88;;
65552;SDS011;52465;51.560;14.368;2023-02-24T15:27:18;6.35;;;5.72;;
65552;SDS011;52465;51.560;14.368;2023-02-24T15:29:55;6.65;;;5.55;;
65552;SDS011;52465;51.560;14.368;2023-02-24T15:32:24;6.40;;;5.90;;
65552;SDS011;52465;51.560;14.368;2023-02-24T15:34:51;6.10;;;5.70;;
65552;SDS011;52465;51.560;14.368;2023-02-24T15:37:25;6.05;;;5.65;;
65552;SDS011;52465;51.560;14.368;2023-02-24T15:40:04;5.72;;;5.25;;
65552;SDS011;52465;51.560;14.368;2023-02-24T15:42:40;6.28;;;5.78;;
65552;SDS011;52465;51.560;14.368;2023-02-24T15:47:58;5.70;;;5.30;;
65552;SDS011;52465;51.560;14.368;2023-02-24T15:50:25;6.25;;;5.75;;
65552;SDS011;52465;51.560;14.368;2023-02-24T15:52:51;6.50;;;5.90;;
65552;SDS011;52465;51.560;14.368;2023-02-24T15:55:19;6.47;;;5.97;;
65552;SDS011;52465;51.560;14.368;2023-02-24T15:57:45;7.90;;;5.32;;
65552;SDS011;52465;51.560;14.368;2023-02-24T16:00:13;6.65;;;6.05;;
65552;SDS011;52465;51.560;14.368;2023-02-24T16:02:41;6.32;;;5.82;;
65552;SDS011;52465;51.560;14.368;2023-02-24T16:05:13;6.85;;;6.35;;
65552;SDS011;52465;51.560;14.368;2023-02-24T16:07:38;9.00;;;6.50;;
65552;SDS011;52465;51.560;14.368;2023-02-24T16:10:04;7.18;;;6.57;;
65552;SDS011;52465;51.560;14.368;2023-02-24T16:12:32;7.28;;;6.80;;
65552;SDS011;52465;51.560;14.368;2023-02-24T16:15:03;6.82;;;6.32;;
65552;SDS011;52465;51.560;14.368;2023-02-24T16:17:34;6.75;;;6.00;;
65552;SDS011;52465;51.560;14.368;2023-02-24T16:20:06;8.27;;;7.15;;
65552;SDS011;52465;51.560;14.368;2023-02-24T16:22:36;9.38;;;7.47;;
65552;SDS011;52465;51.560;14.368;2023-02-24T16:25:01;7.93;;;7.13;;
65552;SDS011;52465;51.560;14.368;2023-02-24T16:27:28;8.48;;;7.78;;
65552;SDS011;52465;51.560;14.368;2023-02-24T16:29:53;8.50;;;7.50;;
65552;SDS011;52465;51.560;14.368;2023-02-24T16:32:19;8.43;;;7.43;;
65552;SDS011;52465;51.560;14.368;2023-02-24T16:34:47;8.45;;;7.72;;
65552;SDS011;52465;51.560;14.368;2023-02-24T16:37:25;8.63;;;7.75;;
65552;SDS011;52465;51.560;14.368;2023-02-24T16:39:52;9.15;;;8.23;;
65552;SDS011;52465;51.560;14.368;2023-02-24T16:42:18;8.25;;;7.65;;
65552;SDS011;52465;51.560;14.368;2023-02-24T16:44:46;8.75;;;8.02;;
65552;SDS011;52465;51.560;14.368;2023-02-24T16:47:16;8.50;;;7.80;;
65552;SDS011;52465;51.560;14.368;2023-02-24T16:49:44;8.65;;;7.82;;
65552;SDS011;52465;51.560;14.368;2023-02-24T16:52:11;8.38;;;7.72;;
65552;SDS011;52465;51.560;14.368;2023-02-24T16:54:37;8.95;;;8.10;;
65552;SDS011;52465;51.560;14.368;2023-02-24T16:57:02;8.70;;;7.80;;
65552;SDS011;52465;51.560;14.368;2023-02-24T16:59:28;8.32;;;7.63;;
65552;SDS011;52465;51.560;14.368;2023-02-24T17:01:54;8.15;;;7.32;;
65552;SDS011;52465;51.560;14.368;2023-02-24T17:04:21;8.07;;;7.47;;
65552;SDS011;52465;51.560;14.368;2023-02-24T17:06:48;8.35;;;7.65;;
65552;SDS011;52465;51.560;14.368;2023-02-24T17:09:14;9.50;;;7.90;;
65552;SDS011;52465;51.560;14.368;2023-02-24T17:11:40;8.45;;;7.72;;
65552;SDS011;52465;51.560;14.368;2023-02-24T17:14:09;8.30;;;7.47;;
65552;SDS011;52465;51.560;14.368;2023-02-24T17:16:39;8.50;;;7.70;;
65552;SDS011;52465;51.560;14.368;2023-02-24T17:19:06;8.50;;;7.80;;